Lindenwood, Illinois
Current Conditions -  °F | °C
As of 4:15 AM on Friday 31 Oct 2014 (Local Time) from KRPJ Reporting Station
Overcast Overcast  
Wind Chill: 31°   Ceiling: 3700
Heat Index: 42°   Visibility: 10mi
Dew Point: 29°   Wind: 28mph
Humidity: 61%   Direction: 340°NNW
Pressure: 30.09"   Gusts: 35mph
Location:  42.05°N, 89.03°W
Report Text: KRPJ 310915Z AUTO 34024G30KT 10SM BKN037 OVC047 05/M01 A3009 RMK AO2 T00541015
Loading
Personal Weather Stations






























Interactive Weather Map
Tropical Storm Tracking
New forecast layout! Learn more

10-Day Weather Forecast

Advertisements
Track Severe Weather on mobile